Terminal Aerodrome Forecast
Issued by NWS

Home | Current Version | Previous Version | Text Only | Print | Product List | Glossary On
Versions: 1 2 3 4 5 6 7 8 9 10 11 12 13 14 15 16 17 18
000
FTUS42 KTBW 261748
TAFPIE
TAF
KPIE 261748Z 2618/2718 20015G20KT P6SM SCT040 BKN150
     FM270200 21008KT P6SM VCSH SCT020 BKN050
     FM271200 21010KT P6SM VCTS BKN025CB
     FM271500 22016KT P6SM VCTS BKN020CB=

USA.gov is the U.S. government's official web portal to all federal, state and local government web resources and services.